Time;durP1;ratioP1;P1;durP2;ratioP2;P2;SDS_P1;SDS_P2;PMS_P1;PMS_P2;Temp;Humidity;BMP_temperature;BMP_pressure;BME280_temperature;BME280_humidity;BME280_pressure;Samples;Min_cycle;Max_cycle;Signal;HPM_P1;HPM_P2
2023/07/29 00:02:08;;;;;;;7.03;6.22;;;21.80;99.90;;;;;;5051069;28;20106;-80
2023/07/29 00:04:34;;;;;;;7.57;6.30;;;21.70;99.90;;;;;;5062982;28;20027;-81
2023/07/29 00:07:00;;;;;;;7.88;6.43;;;21.60;99.90;;;;;;5084861;28;20034;-81
2023/07/29 00:09:26;;;;;;;7.35;6.40;;;21.80;99.90;;;;;;5083269;28;20066;-80
2023/07/29 00:11:52;;;;;;;6.70;6.05;;;21.70;99.90;;;;;;5062733;28;20102;-80
2023/07/29 00:14:17;;;;;;;7.03;6.38;;;21.70;99.90;;;;;;5103633;28;20317;-81
2023/07/29 00:16:43;;;;;;;7.93;7.13;;;21.80;99.90;;;;;;5065808;28;20024;-81
2023/07/29 00:19:09;;;;;;;7.60;6.90;;;21.80;99.90;;;;;;5070939;28;20346;-81
2023/07/29 00:21:35;;;;;;;7.78;6.88;;;21.60;99.90;;;;;;5068329;28;20026;-83
2023/07/29 00:24:01;;;;;;;9.95;6.93;;;21.70;99.90;;;;;;5087667;28;20046;-82
2023/07/29 00:26:28;;;;;;;7.90;7.05;;;21.90;99.90;;;;;;5069114;28;20019;-83
2023/07/29 00:28:58;;;;;;;7.90;7.10;;;21.70;99.90;;;;;;5053064;28;20035;-82
2023/07/29 00:31:24;;;;;;;8.68;6.72;;;21.60;99.90;;;;;;5084881;28;20038;-83
2023/07/29 00:33:50;;;;;;;7.82;7.03;;;21.60;99.90;;;;;;5067879;28;20070;-80
2023/07/29 00:36:16;;;;;;;8.13;7.03;;;21.60;99.90;;;;;;5077223;28;20194;-83
2023/07/29 00:38:41;;;;;;;7.25;6.55;;;21.90;99.90;;;;;;5072985;28;20031;-82
2023/07/29 00:41:08;;;;;;;8.65;7.15;;;21.80;99.90;;;;;;5045259;28;20031;-83
2023/07/29 00:43:34;;;;;;;8.10;6.72;;;21.90;99.90;;;;;;5067262;28;20031;-83
2023/07/29 00:46:00;;;;;;;8.88;7.15;;;21.60;99.90;;;;;;5030992;28;20060;-82
2023/07/29 00:48:27;;;;;;;6.85;6.07;;;21.30;99.90;;;;;;5039049;28;20048;-82
2023/07/29 00:50:54;;;;;;;8.23;7.07;;;21.50;99.90;;;;;;5063860;28;20044;-82
2023/07/29 00:53:19;;;;;;;7.50;6.80;;;21.50;99.90;;;;;;5069133;28;20036;-82
2023/07/29 00:55:45;;;;;;;8.10;7.15;;;21.70;99.90;;;;;;5046710;28;20067;-82
2023/07/29 00:58:12;;;;;;;7.22;6.50;;;21.50;99.90;;;;;;5041739;28;20032;-81
2023/07/29 01:00:38;;;;;;;8.25;7.50;;;21.70;99.90;;;;;;5062350;28;20356;-84
2023/07/29 01:03:05;;;;;;;9.55;7.63;;;21.80;99.90;;;;;;5064495;28;20035;-82
2023/07/29 01:05:55;;;;;;;9.27;7.22;;;21.70;99.90;;;;;;5082393;28;20027;-82
2023/07/29 01:08:31;;;;;;;9.02;6.80;;;21.70;99.90;;;;;;5074496;28;20072;-83
2023/07/29 01:11:44;;;;;;;8.90;7.63;;;21.60;99.90;;;;;;5072756;28;20033;-82
2023/07/29 01:14:13;;;;;;;8.35;7.38;;;21.70;99.90;;;;;;5039244;28;20053;-81
2023/07/29 01:16:45;;;;;;;10.18;7.03;;;21.70;99.90;;;;;;5055333;28;20064;-81
2023/07/29 01:19:44;;;;;;;9.80;7.55;;;21.40;99.90;;;;;;5078766;28;20028;-82
2023/07/29 01:22:12;;;;;;;8.10;6.88;;;21.60;99.90;;;;;;5053817;28;20055;-82
2023/07/29 01:24:38;;;;;;;8.35;7.43;;;21.50;99.90;;;;;;5040878;28;20056;-82
2023/07/29 01:27:05;;;;;;;9.05;7.45;;;21.40;99.90;;;;;;5058222;28;20087;-83
2023/07/29 01:29:31;;;;;;;10.18;8.02;;;21.30;99.90;;;;;;5045167;28;20035;-82
2023/07/29 01:32:04;;;;;;;9.75;8.38;;;21.40;99.90;;;;;;5041903;28;20250;-82
2023/07/29 01:34:35;;;;;;;9.23;7.95;;;21.20;99.90;;;;;;5075354;28;20347;-83
2023/07/29 01:37:07;;;;;;;9.05;8.15;;;21.20;99.90;;;;;;5073979;28;21571;-82
2023/07/29 01:39:36;;;;;;;9.77;7.50;;;21.20;99.90;;;;;;5060111;28;20250;-83
2023/07/29 01:42:02;;;;;;;8.63;7.72;;;21.20;99.90;;;;;;5058091;28;20028;-82
2023/07/29 01:44:28;;;;;;;9.45;7.50;;;21.20;99.90;;;;;;5069978;28;20051;-81
2023/07/29 01:46:56;;;;;;;9.35;7.93;;;21.10;99.90;;;;;;5094482;28;20326;-82
2023/07/29 01:49:22;;;;;;;10.63;7.70;;;20.90;99.90;;;;;;5072496;28;20103;-83
2023/07/29 01:51:48;;;;;;;10.73;7.78;;;20.90;99.90;;;;;;5083863;28;20662;-83
2023/07/29 01:54:14;;;;;;;8.18;7.38;;;21.00;99.90;;;;;;5069227;28;20059;-83
2023/07/29 01:56:39;;;;;;;9.07;8.02;;;21.00;99.90;;;;;;5065951;28;20035;-83
2023/07/29 01:59:05;;;;;;;10.57;8.30;;;20.90;99.90;;;;;;5084546;28;20050;-82
2023/07/29 02:01:31;;;;;;;9.20;8.30;;;20.90;99.90;;;;;;5102917;28;20250;-83
2023/07/29 02:03:57;;;;;;;9.15;8.25;;;20.80;99.90;;;;;;5085088;28;20038;-82
2023/07/29 02:06:23;;;;;;;11.15;8.73;;;20.80;99.90;;;;;;5089653;28;20289;-83
2023/07/29 02:08:48;;;;;;;10.43;8.30;;;20.80;99.90;;;;;;5074290;28;20035;-85
2023/07/29 02:11:14;;;;;;;9.57;8.43;;;20.80;99.90;;;;;;5085188;28;20322;-83
2023/07/29 02:13:40;;;;;;;11.18;8.77;;;20.80;99.90;;;;;;5075370;28;20031;-82
2023/07/29 02:16:06;;;;;;;9.55;7.93;;;20.70;99.90;;;;;;5086124;28;20027;-82
2023/07/29 02:18:31;;;;;;;9.85;8.48;;;20.70;99.90;;;;;;5082749;28;20063;-82
2023/07/29 02:20:57;;;;;;;10.35;8.40;;;20.50;99.90;;;;;;5051128;28;20031;-83
2023/07/29 02:23:23;;;;;;;10.18;8.20;;;20.60;99.90;;;;;;5101441;28;20035;-83
2023/07/29 02:25:50;;;;;;;9.45;8.18;;;20.50;99.90;;;;;;5066465;28;20302;-81
2023/07/29 02:28:16;;;;;;;8.80;7.85;;;20.50;99.90;;;;;;5078745;28;20069;-83
2023/07/29 02:30:44;;;;;;;10.43;8.70;;;20.70;99.90;;;;;;5085613;28;20031;-83
2023/07/29 02:33:10;;;;;;;9.00;7.50;;;20.50;99.90;;;;;;5064688;28;20039;-81
2023/07/29 02:35:37;;;;;;;12.23;8.85;;;20.60;99.90;;;;;;5080437;28;20020;-83
2023/07/29 02:38:03;;;;;;;12.30;8.60;;;20.30;99.90;;;;;;5075955;28;20330;-82
2023/07/29 02:40:29;;;;;;;9.48;7.93;;;20.50;99.90;;;;;;5049492;28;20032;-82
2023/07/29 02:42:55;;;;;;;9.65;8.30;;;20.60;99.90;;;;;;5068814;28;20023;-82
2023/07/29 02:45:21;;;;;;;11.77;8.93;;;20.40;99.90;;;;;;5103510;28;20113;-82
2023/07/29 02:47:47;;;;;;;8.63;7.47;;;20.40;99.90;;;;;;5068987;28;20377;-82
2023/07/29 02:50:12;;;;;;;10.18;7.90;;;20.40;99.90;;;;;;5055469;28;20068;-82
2023/07/29 02:52:38;;;;;;;9.07;7.55;;;20.40;99.90;;;;;;5044020;28;20341;-81
2023/07/29 02:55:05;;;;;;;9.07;7.90;;;20.50;99.90;;;;;;5081914;28;20099;-81
2023/07/29 02:57:30;;;;;;;10.25;8.43;;;20.00;99.90;;;;;;5089015;28;20059;-82
2023/07/29 02:59:56;;;;;;;11.02;7.60;;;20.40;99.90;;;;;;5096641;28;20206;-82
2023/07/29 03:02:22;;;;;;;9.15;7.75;;;20.30;99.90;;;;;;5082193;28;20072;-82
2023/07/29 03:04:48;;;;;;;9.07;7.15;;;20.40;99.90;;;;;;5082555;28;20066;-82
2023/07/29 03:07:14;;;;;;;10.45;7.78;;;20.40;99.90;;;;;;5077960;28;20090;-82
2023/07/29 03:09:41;;;;;;;8.50;7.38;;;20.30;99.90;;;;;;5080826;28;20092;-83
2023/07/29 03:12:07;;;;;;;10.38;7.80;;;20.40;99.90;;;;;;5055388;28;20377;-84
2023/07/29 03:14:34;;;;;;;10.27;7.47;;;20.20;99.90;;;;;;5068217;28;20024;-82
2023/07/29 03:17:04;;;;;;;9.75;7.22;;;20.30;99.90;;;;;;5053947;28;20027;-80
2023/07/29 03:19:30;;;;;;;8.05;6.72;;;20.20;99.90;;;;;;5104896;28;20229;-84
2023/07/29 03:21:55;;;;;;;7.97;6.70;;;20.20;99.90;;;;;;5073700;28;20371;-84
2023/07/29 03:24:21;;;;;;;9.52;6.93;;;20.30;99.90;;;;;;5064056;28;20028;-84
2023/07/29 03:26:47;;;;;;;7.72;6.88;;;20.20;99.90;;;;;;5086735;28;20354;-82
2023/07/29 03:29:12;;;;;;;8.55;6.30;;;20.10;99.90;;;;;;5081628;28;20202;-84
2023/07/29 03:31:38;;;;;;;9.20;6.95;;;20.10;99.90;;;;;;5064443;28;20038;-82
2023/07/29 03:34:04;;;;;;;7.80;6.50;;;20.20;99.90;;;;;;5080644;28;20233;-82
2023/07/29 03:36:29;;;;;;;7.32;6.55;;;20.10;99.90;;;;;;5067368;28;20040;-83
2023/07/29 03:38:55;;;;;;;9.40;6.70;;;20.10;99.90;;;;;;5053499;28;20031;-82
2023/07/29 03:41:21;;;;;;;8.40;6.57;;;20.00;99.90;;;;;;5053563;28;20043;-82
2023/07/29 03:43:47;;;;;;;8.35;6.70;;;20.10;99.90;;;;;;5068856;28;20250;-82
2023/07/29 03:46:13;;;;;;;8.98;6.40;;;20.00;99.90;;;;;;5068880;28;20274;-82
2023/07/29 03:48:39;;;;;;;8.77;6.43;;;20.00;99.90;;;;;;5062795;28;20337;-83
2023/07/29 03:51:04;;;;;;;9.65;6.25;;;20.00;99.90;;;;;;5067711;28;20031;-82
2023/07/29 03:53:30;;;;;;;6.60;5.75;;;20.00;99.90;;;;;;5068833;28;20040;-82
2023/07/29 03:55:56;;;;;;;8.52;6.10;;;20.10;99.90;;;;;;5071056;28;20035;-83
2023/07/29 03:58:22;;;;;;;6.53;5.90;;;19.90;99.90;;;;;;5053211;28;20047;-82
2023/07/29 04:00:48;;;;;;;9.68;6.32;;;20.00;99.90;;;;;;5083426;28;20464;-82
2023/07/29 04:03:14;;;;;;;7.55;6.25;;;19.90;99.90;;;;;;5087037;28;20031;-82
2023/07/29 04:05:39;;;;;;;7.90;5.95;;;19.90;99.90;;;;;;5099071;28;20322;-81
2023/07/29 04:08:05;;;;;;;7.85;5.30;;;20.00;99.90;;;;;;5051806;28;20062;-81
2023/07/29 04:10:31;;;;;;;7.72;6.00;;;20.00;99.90;;;;;;5102286;28;20130;-81
2023/07/29 04:12:57;;;;;;;6.57;5.03;;;19.90;99.90;;;;;;5067266;28;20036;-83
2023/07/29 04:15:23;;;;;;;6.57;5.10;;;20.00;99.90;;;;;;5074233;28;20321;-82
2023/07/29 04:17:49;;;;;;;7.20;5.28;;;19.90;99.90;;;;;;5064607;28;20020;-82
2023/07/29 04:20:14;;;;;;;6.22;5.03;;;20.00;99.90;;;;;;5074044;28;20082;-81
2023/07/29 04:22:40;;;;;;;6.30;4.82;;;20.10;99.90;;;;;;5068068;28;20561;-82
2023/07/29 04:25:06;;;;;;;6.20;5.10;;;19.90;99.90;;;;;;5064684;28;20031;-82
2023/07/29 04:27:32;;;;;;;7.00;4.85;;;19.90;99.90;;;;;;5065933;28;20047;-81
2023/07/29 04:29:58;;;;;;;8.18;5.43;;;20.00;99.90;;;;;;5057456;28;20106;-82
2023/07/29 04:32:24;;;;;;;6.28;5.13;;;20.00;99.90;;;;;;5047587;28;20390;-82
2023/07/29 04:34:49;;;;;;;7.65;5.00;;;20.10;99.90;;;;;;5053406;28;20424;-82
2023/07/29 04:37:15;;;;;;;6.15;4.57;;;20.10;99.90;;;;;;5084950;28;20050;-81
2023/07/29 04:39:41;;;;;;;11.98;5.63;;;20.10;99.90;;;;;;5068815;28;20033;-82
2023/07/29 04:42:07;;;;;;;6.25;4.35;;;20.30;99.90;;;;;;5083018;28;20411;-82
2023/07/29 04:44:33;;;;;;;5.28;4.30;;;20.20;99.90;;;;;;5103686;28;20044;-81
2023/07/29 04:46:59;;;;;;;6.28;4.25;;;20.10;99.90;;;;;;5085935;28;20047;-83
2023/07/29 04:49:25;;;;;;;5.40;4.45;;;20.10;99.90;;;;;;5053299;28;20089;-82
2023/07/29 04:51:50;;;;;;;7.35;4.50;;;20.20;99.90;;;;;;5086260;28;20032;-82
2023/07/29 04:54:16;;;;;;;5.43;4.30;;;20.30;99.90;;;;;;5083127;28;20031;-81
2023/07/29 04:56:42;;;;;;;7.15;4.30;;;20.30;99.90;;;;;;5082478;28;20032;-81
2023/07/29 04:59:08;;;;;;;4.97;4.18;;;20.40;99.90;;;;;;5071807;28;20032;-80
2023/07/29 05:01:34;;;;;;;5.90;3.75;;;19.60;99.90;;;;;;5095973;28;20023;-78
2023/07/29 05:04:00;;;;;;;6.75;3.78;;;20.40;99.90;;;;;;5065290;28;20081;-78
2023/07/29 05:06:25;;;;;;;6.47;4.00;;;20.40;99.90;;;;;;5065433;28;20039;-80
2023/07/29 05:08:51;;;;;;;5.45;4.20;;;20.40;99.90;;;;;;5079921;28;20031;-80
2023/07/29 05:11:17;;;;;;;5.00;3.30;;;20.50;99.90;;;;;;5083478;28;20039;-80
2023/07/29 05:13:43;;;;;;;5.32;3.55;;;20.60;99.90;;;;;;5062765;28;20075;-82
2023/07/29 05:16:09;;;;;;;7.55;3.55;;;20.60;99.90;;;;;;5060278;28;20035;-80
2023/07/29 05:18:35;;;;;;;5.30;3.50;;;20.70;99.90;;;;;;5083313;28;20096;-80
2023/07/29 05:21:00;;;;;;;4.15;3.50;;;20.50;99.90;;;;;;5053436;28;20019;-80
2023/07/29 05:23:36;;;;;;;5.53;3.30;;;20.60;99.90;;;;;;5063534;28;20219;-82
2023/07/29 05:26:02;;;;;;;5.95;3.35;;;20.50;99.90;;;;;;5087486;28;20035;-81
2023/07/29 05:28:29;;;;;;;5.57;3.60;;;20.50;99.90;;;;;;5061591;28;20059;-81
2023/07/29 05:30:55;;;;;;;5.70;3.22;;;20.70;99.90;;;;;;5067498;28;20023;-81
2023/07/29 05:33:21;;;;;;;8.93;3.53;;;20.60;99.90;;;;;;5062444;28;20034;-82
2023/07/29 05:35:47;;;;;;;5.93;3.38;;;20.50;99.90;;;;;;5064549;28;20060;-82
2023/07/29 05:38:16;;;;;;;3.92;3.03;;;20.50;99.90;;;;;;5083472;28;20431;-82
2023/07/29 05:40:42;;;;;;;6.32;3.75;;;20.70;99.90;;;;;;5039307;28;20043;-81
2023/07/29 05:43:08;;;;;;;4.75;3.35;;;20.70;99.90;;;;;;5055731;28;20024;-80
2023/07/29 05:45:34;;;;;;;3.20;2.83;;;20.70;99.90;;;;;;5095507;28;20212;-81
2023/07/29 05:47:59;;;;;;;5.25;3.20;;;20.60;99.90;;;;;;5050740;28;20263;-81
2023/07/29 05:50:25;;;;;;;8.32;3.30;;;20.80;99.90;;;;;;5089865;28;20106;-81
2023/07/29 05:52:51;;;;;;;5.78;2.83;;;20.70;99.90;;;;;;5082643;28;20087;-82
2023/07/29 05:55:17;;;;;;;4.70;2.88;;;20.70;99.90;;;;;;5093037;28;20465;-81
2023/07/29 05:57:42;;;;;;;7.20;3.20;;;20.80;99.90;;;;;;5068886;28;20095;-81
2023/07/29 06:00:09;;;;;;;4.82;2.92;;;20.70;99.90;;;;;;5085087;28;20084;-83
2023/07/29 06:02:38;;;;;;;4.50;3.13;;;20.80;99.90;;;;;;5084508;28;20256;-82
2023/07/29 06:05:07;;;;;;;5.00;3.05;;;20.80;99.90;;;;;;5062181;28;20028;-81
2023/07/29 06:07:33;;;;;;;4.75;3.13;;;20.80;99.90;;;;;;5096109;28;20043;-82
2023/07/29 06:10:00;;;;;;;5.53;3.17;;;20.70;99.90;;;;;;5071087;28;20035;-82
2023/07/29 06:12:26;;;;;;;4.25;3.03;;;20.90;99.90;;;;;;5068100;28;20128;-82
2023/07/29 06:14:52;;;;;;;4.43;3.15;;;20.80;99.90;;;;;;5081212;28;20272;-80
2023/07/29 06:17:18;;;;;;;4.75;3.08;;;20.90;99.90;;;;;;5094303;28;20055;-81
2023/07/29 06:19:44;;;;;;;4.75;2.78;;;20.90;99.90;;;;;;5051226;28;20226;-80
2023/07/29 06:22:10;;;;;;;6.90;3.25;;;20.90;99.90;;;;;;5101202;28;20067;-79
2023/07/29 06:24:36;;;;;;;4.50;2.60;;;21.10;99.90;;;;;;5083091;28;20040;-80
2023/07/29 06:27:02;;;;;;;4.40;2.88;;;21.20;99.90;;;;;;5096832;28;20024;-80
2023/07/29 06:29:28;;;;;;;4.97;2.55;;;21.10;99.90;;;;;;5082542;28;20035;-81
2023/07/29 06:31:54;;;;;;;4.95;2.70;;;21.00;99.90;;;;;;5068376;28;20106;-82
2023/07/29 06:34:21;;;;;;;5.38;2.72;;;21.20;99.90;;;;;;5068429;28;20099;-82
2023/07/29 06:36:46;;;;;;;6.40;2.80;;;21.10;99.90;;;;;;5076939;28;20023;-70
2023/07/29 06:39:13;;;;;;;4.05;2.63;;;21.30;99.90;;;;;;5088281;28;20038;-83
2023/07/29 06:41:39;;;;;;;4.75;2.50;;;21.20;99.90;;;;;;5061042;28;20032;-81
2023/07/29 06:44:05;;;;;;;9.05;2.53;;;21.40;99.90;;;;;;5086817;28;20322;-82
2023/07/29 06:46:30;;;;;;;3.20;2.42;;;21.90;99.90;;;;;;5067158;28;20036;-82
2023/07/29 06:48:56;;;;;;;4.15;2.40;;;22.00;99.90;;;;;;5054419;28;20044;-82
2023/07/29 06:51:22;;;;;;;4.90;2.80;;;22.10;99.90;;;;;;5071401;28;20477;-82
2023/07/29 06:53:48;;;;;;;5.05;2.45;;;22.10;99.90;;;;;;5086931;28;20039;-81
2023/07/29 06:56:14;;;;;;;5.38;2.50;;;22.10;99.90;;;;;;5088144;28;20035;-82
2023/07/29 06:58:39;;;;;;;4.72;2.83;;;22.20;99.90;;;;;;5067709;28;20027;-82
2023/07/29 07:01:06;;;;;;;5.53;3.00;;;22.30;99.90;;;;;;5067973;28;20103;-81
2023/07/29 07:03:31;;;;;;;4.20;2.80;;;22.30;99.90;;;;;;5083798;28;20343;-81
2023/07/29 07:05:58;;;;;;;7.68;2.72;;;22.30;99.90;;;;;;5050331;28;20130;-82
2023/07/29 07:08:27;;;;;;;6.47;3.30;;;22.50;99.90;;;;;;5071931;28;20028;-84
2023/07/29 07:10:56;;;;;;;5.28;3.20;;;22.50;99.90;;;;;;5065795;28;20038;-80
2023/07/29 07:13:22;;;;;;;6.03;2.67;;;21.50;99.90;;;;;;5086260;28;20058;-81
2023/07/29 07:15:48;;;;;;;4.13;2.45;;;22.70;99.90;;;;;;5084718;28;20028;-82
2023/07/29 07:18:14;;;;;;;8.82;2.80;;;22.60;99.90;;;;;;5071814;28;20067;-81
2023/07/29 07:20:40;;;;;;;6.07;3.20;;;22.80;99.90;;;;;;5074885;28;20036;-82
2023/07/29 07:23:13;;;;;;;5.38;2.58;;;22.80;99.90;;;;;;5067578;28;20266;-83
2023/07/29 07:25:39;;;;;;;6.20;3.45;;;22.60;99.90;;;;;;5080631;28;20038;-83
2023/07/29 07:28:04;;;;;;;4.72;2.97;;;22.50;99.90;;;;;;5052354;28;20318;-83
2023/07/29 07:30:30;;;;;;;7.05;3.20;;;22.60;99.90;;;;;;5045601;28;20047;-84
2023/07/29 07:32:56;;;;;;;5.45;3.60;;;22.00;99.90;;;;;;5063200;28;20028;-82
2023/07/29 07:35:23;;;;;;;8.55;3.33;;;22.50;99.90;;;;;;5085936;28;20097;-82
2023/07/29 07:37:48;;;;;;;6.32;3.22;;;22.60;99.90;;;;;;5084584;28;20079;-81
2023/07/29 07:40:14;;;;;;;6.43;2.92;;;22.50;99.90;;;;;;5057033;28;20063;-83
2023/07/29 07:42:40;;;;;;;6.80;3.28;;;22.60;99.90;;;;;;5079522;28;20043;-81
2023/07/29 07:45:06;;;;;;;6.85;3.50;;;22.60;99.90;;;;;;5079842;28;20066;-83
2023/07/29 07:47:32;;;;;;;6.50;3.38;;;22.60;99.90;;;;;;5072818;28;20040;-83
2023/07/29 07:49:58;;;;;;;5.57;3.33;;;22.90;99.90;;;;;;5078367;28;20105;-82
2023/07/29 07:52:24;;;;;;;6.00;3.50;;;22.80;99.90;;;;;;5057803;28;20028;-83
2023/07/29 07:54:54;;;;;;;4.68;3.40;;;23.00;99.90;;;;;;5068239;28;20055;-82
2023/07/29 07:57:23;;;;;;;6.35;3.80;;;23.00;99.90;;;;;;5077030;28;20024;-82
2023/07/29 07:59:50;;;;;;;6.55;3.58;;;22.80;99.90;;;;;;5101174;28;20099;-82
2023/07/29 08:02:17;;;;;;;5.50;3.17;;;23.10;99.90;;;;;;5059828;28;20256;-84
2023/07/29 08:04:43;;;;;;;6.13;3.78;;;23.20;99.90;;;;;;5034474;28;20341;-82
2023/07/29 08:07:10;;;;;;;7.10;3.80;;;23.30;99.90;;;;;;5048044;28;20314;-81
2023/07/29 08:09:36;;;;;;;5.35;3.30;;;23.30;99.90;;;;;;5083030;28;20113;-81
2023/07/29 08:12:02;;;;;;;4.65;3.35;;;23.40;99.90;;;;;;5072931;28;20028;-82
2023/07/29 08:14:28;;;;;;;5.18;3.72;;;23.60;99.90;;;;;;5051390;28;20057;-81
2023/07/29 08:16:53;;;;;;;5.35;3.45;;;23.40;99.90;;;;;;5064694;28;20218;-82
2023/07/29 08:19:19;;;;;;;4.47;2.90;;;23.60;99.90;;;;;;5055921;28;20073;-85
2023/07/29 08:21:45;;;;;;;5.53;3.42;;;23.70;99.90;;;;;;5061525;28;20032;-80
2023/07/29 08:24:11;;;;;;;7.10;3.75;;;23.50;99.90;;;;;;5072596;28;20024;-83
2023/07/29 08:26:37;;;;;;;5.32;3.38;;;23.50;99.90;;;;;;5084438;28;20333;-83
2023/07/29 08:29:03;;;;;;;5.13;3.05;;;23.50;99.90;;;;;;5083355;28;20295;-81
2023/07/29 08:31:30;;;;;;;3.90;2.75;;;23.40;99.90;;;;;;5057749;28;20103;-83
2023/07/29 08:33:56;;;;;;;6.75;3.42;;;23.50;99.90;;;;;;5067901;28;20024;-82
2023/07/29 08:36:22;;;;;;;4.47;3.08;;;23.60;99.90;;;;;;5084539;28;20054;-82
2023/07/29 08:38:48;;;;;;;4.95;3.22;;;24.00;99.90;;;;;;5046073;28;20112;-84
2023/07/29 08:41:44;;;;;;;5.82;3.00;;;24.00;99.90;;;;;;5063449;28;20087;-83
2023/07/29 08:44:31;;;;;;;6.28;2.80;;;24.30;99.90;;;;;;5033231;28;20059;-82
2023/07/29 08:46:57;;;;;;;6.65;2.92;;;24.70;99.90;;;;;;5067534;28;20047;-81
2023/07/29 08:49:23;;;;;;;6.25;2.85;;;24.60;99.90;;;;;;5051091;28;20035;-82
2023/07/29 08:51:53;;;;;;;4.38;2.78;;;25.10;99.90;;;;;;5092806;28;20130;-84
2023/07/29 08:54:19;;;;;;;5.30;2.65;;;24.70;99.90;;;;;;5074637;28;20031;-83
2023/07/29 08:56:45;;;;;;;6.65;2.88;;;24.60;99.90;;;;;;5074736;28;20035;-81
2023/07/29 08:59:13;;;;;;;6.07;2.88;;;24.60;99.90;;;;;;5066864;28;20039;-81
2023/07/29 09:01:39;;;;;;;5.32;2.92;;;24.40;99.90;;;;;;5070469;28;20084;-81
2023/07/29 09:04:05;;;;;;;5.53;2.40;;;24.50;99.90;;;;;;5068816;28;20027;-81
2023/07/29 09:06:32;;;;;;;7.55;2.45;;;24.30;99.90;;;;;;5085993;28;20026;-81
2023/07/29 09:08:59;;;;;;;4.30;2.90;;;24.30;99.90;;;;;;5103539;28;20058;-81
2023/07/29 09:11:26;;;;;;;6.70;3.20;;;24.10;99.90;;;;;;5102747;28;20124;-81
2023/07/29 09:13:52;;;;;;;3.92;2.60;;;24.40;99.90;;;;;;5058080;28;20322;-81
2023/07/29 09:16:20;;;;;;;3.67;2.20;;;24.50;99.90;;;;;;5086253;28;20062;-82
2023/07/29 09:18:50;;;;;;;4.55;2.60;;;24.60;99.90;;;;;;5079741;28;20149;-82
2023/07/29 09:21:26;;;;;;;4.38;2.30;;;24.70;99.90;;;;;;5101995;28;20038;-82
2023/07/29 09:23:53;;;;;;;5.25;2.60;;;24.50;99.90;;;;;;5086702;28;20046;-82
2023/07/29 09:26:24;;;;;;;3.38;2.20;;;24.70;99.90;;;;;;5052810;28;20035;-82
2023/07/29 09:28:53;;;;;;;6.93;2.60;;;24.60;99.90;;;;;;5084597;28;20329;-79
2023/07/29 09:31:21;;;;;;;6.15;2.42;;;24.50;99.90;;;;;;5081968;28;20245;-77
2023/07/29 09:33:48;;;;;;;3.88;2.20;;;24.30;99.90;;;;;;5101927;28;20070;-78
2023/07/29 09:36:14;;;;;;;3.22;2.28;;;24.30;99.90;;;;;;5085523;28;20034;-82
2023/07/29 09:38:40;;;;;;;2.95;1.77;;;24.30;99.90;;;;;;5078092;28;20099;-81
2023/07/29 09:41:07;;;;;;;4.22;2.10;;;24.50;99.90;;;;;;5076913;28;20451;-82
2023/07/29 09:43:36;;;;;;;3.75;2.28;;;25.00;99.90;;;;;;5073353;28;20038;-83
2023/07/29 09:46:03;;;;;;;4.28;2.45;;;25.50;99.90;;;;;;5069606;28;20059;-83
2023/07/29 09:48:33;;;;;;;5.72;2.30;;;25.80;99.90;;;;;;5071565;28;20323;-78
2023/07/29 09:50:59;;;;;;;3.03;1.60;;;26.20;99.90;;;;;;5078442;28;20207;-78
2023/07/29 09:53:25;;;;;;;5.18;1.58;;;26.40;99.90;;;;;;5098077;28;20035;-80
2023/07/29 09:55:53;;;;;;;3.67;1.40;;;26.50;99.90;;;;;;5092169;28;20191;-78
2023/07/29 09:58:28;;;;;;;2.70;1.70;;;26.40;99.90;;;;;;5097084;28;20024;-77
2023/07/29 10:00:54;;;;;;;4.28;1.73;;;26.40;99.90;;;;;;5062160;28;20047;-82
2023/07/29 10:03:22;;;;;;;3.53;1.70;;;26.60;99.90;;;;;;5091235;28;20028;-83
2023/07/29 10:05:50;;;;;;;3.95;2.05;;;26.20;99.90;;;;;;5075139;28;20028;-83
2023/07/29 10:08:17;;;;;;;3.85;1.70;;;26.90;99.90;;;;;;5090898;28;20156;-86
2023/07/29 10:10:45;;;;;;;7.18;1.63;;;26.90;99.90;;;;;;5089079;28;20050;-82
2023/07/29 10:13:13;;;;;;;2.92;1.40;;;27.30;99.90;;;;;;5089631;28;20039;-83
2023/07/29 10:15:40;;;;;;;2.67;1.58;;;27.20;99.90;;;;;;5090541;28;20023;-84
2023/07/29 10:18:06;;;;;;;3.35;1.77;;;27.50;99.90;;;;;;5090599;28;20034;-83
2023/07/29 10:20:34;;;;;;;3.72;1.45;;;27.00;99.90;;;;;;5107358;28;20202;-83
2023/07/29 10:23:01;;;;;;;2.20;1.27;;;27.50;99.90;;;;;;5103477;28;20028;-82
2023/07/29 10:25:41;;;;;;;3.17;1.58;;;27.90;99.90;;;;;;5087301;28;20086;-83
2023/07/29 10:28:09;;;;;;;2.42;1.30;;;28.00;99.90;;;;;;5073735;28;20116;-83
2023/07/29 10:30:35;;;;;;;4.32;1.33;;;28.20;99.90;;;;;;5072770;28;20031;-83
2023/07/29 10:33:06;;;;;;;2.22;1.33;;;28.20;99.90;;;;;;5070371;28;20024;-83
2023/07/29 10:35:35;;;;;;;2.35;1.40;;;27.60;99.90;;;;;;5053539;28;20038;-82
2023/07/29 10:38:04;;;;;;;2.22;1.38;;;27.50;99.90;;;;;;5079952;28;20035;-83
2023/07/29 10:40:48;;;;;;;2.42;1.40;;;27.40;99.90;;;;;;5099445;28;20023;-83
2023/07/29 10:43:24;;;;;;;2.83;1.20;;;27.00;99.90;;;;;;5082946;28;20047;-83
2023/07/29 10:45:50;;;;;;;3.55;1.75;;;27.10;99.90;;;;;;5099741;28;20618;-82
2023/07/29 10:48:53;;;;;;;3.88;1.67;;;27.20;99.90;;;;;;5075137;28;20071;-82
2023/07/29 10:51:36;;;;;;;2.65;1.67;;;27.30;99.90;;;;;;5079406;28;20290;-85
2023/07/29 10:54:09;;;;;;;2.92;1.20;;;27.80;99.90;;;;;;5100898;28;20059;-83
2023/07/29 10:56:39;;;;;;;2.75;1.45;;;27.80;99.90;;;;;;5084583;28;20026;-82
2023/07/29 10:59:11;;;;;;;2.17;1.33;;;27.90;99.90;;;;;;5085048;28;20138;-79
2023/07/29 11:01:39;;;;;;;2.80;1.40;;;27.30;99.90;;;;;;5079124;28;20020;-77
2023/07/29 11:04:23;;;;;;;3.13;1.48;;;27.40;99.90;;;;;;5075669;28;20475;-80
2023/07/29 11:07:23;;;;;;;3.08;1.60;;;27.10;99.90;;;;;;5089344;28;20035;-80
2023/07/29 11:09:58;;;;;;;;;;;27.10;99.90;;;;;;5098514;28;20372;-79
2023/07/29 11:13:00;;;;;;;3.08;1.40;;;26.90;99.90;;;;;;5088289;28;19911;-81
2023/07/29 11:15:28;;;;;;;2.97;1.35;;;26.60;99.90;;;;;;4976138;28;20030;-80
2023/07/29 11:17:54;;;;;;;2.13;1.45;;;26.40;99.90;;;;;;5073414;28;20048;-79
2023/07/29 11:20:28;;;;;;;3.85;1.70;;;26.40;99.90;;;;;;5075794;28;20106;-80
2023/07/29 11:22:55;;;;;;;2.05;1.40;;;26.10;99.90;;;;;;5088722;28;20317;-81
2023/07/29 11:25:26;;;;;;;2.22;1.15;;;25.40;99.90;;;;;;5085354;28;20039;-80
2023/07/29 11:27:54;;;;;;;5.68;1.33;;;25.10;99.90;;;;;;5069245;28;20302;-79
2023/07/29 11:30:20;;;;;;;6.18;1.50;;;25.00;99.90;;;;;;5099396;28;20059;-80
2023/07/29 11:32:46;;;;;;;4.00;2.05;;;24.90;99.90;;;;;;5067754;28;20132;-78
2023/07/29 11:35:18;;;;;;;3.17;1.40;;;25.10;99.90;;;;;;5083354;28;20039;-78
2023/07/29 11:37:49;;;;;;;2.83;1.40;;;25.10;99.90;;;;;;5093235;28;20146;-78
2023/07/29 11:40:16;;;;;;;2.65;1.52;;;25.40;99.90;;;;;;5052661;28;20370;-78
2023/07/29 11:42:42;;;;;;;3.67;1.98;;;25.20;99.90;;;;;;5066947;28;20032;-79
2023/07/29 11:45:09;;;;;;;3.08;1.60;;;25.10;99.90;;;;;;5067320;28;20031;-78
2023/07/29 11:47:36;;;;;;;1.85;1.45;;;25.10;99.90;;;;;;5067113;28;20039;-78
2023/07/29 11:50:08;;;;;;;6.30;1.70;;;24.90;99.90;;;;;;5066927;28;20103;-80
2023/07/29 11:52:39;;;;;;;3.88;1.75;;;24.90;99.90;;;;;;5080817;28;20032;-79
2023/07/29 11:55:06;;;;;;;3.47;1.40;;;24.80;99.90;;;;;;5086869;28;20040;-80
2023/07/29 11:57:35;;;;;;;3.30;1.70;;;25.00;99.90;;;;;;5063681;28;20032;-78
2023/07/29 12:00:06;;;;;;;2.83;1.58;;;25.30;99.90;;;;;;5088392;28;20027;-81
2023/07/29 12:02:34;;;;;;;3.78;2.03;;;25.90;99.90;;;;;;5084455;28;20355;-79
2023/07/29 12:05:03;;;;;;;3.38;1.50;;;26.50;99.90;;;;;;5087960;28;20031;-80
2023/07/29 12:07:28;;;;;;;2.83;1.67;;;26.80;99.90;;;;;;5059951;28;20183;-77
2023/07/29 12:09:55;;;;;;;4.15;1.50;;;26.60;99.90;;;;;;5078517;28;20023;-82
2023/07/29 12:12:22;;;;;;;3.25;1.80;;;27.30;99.90;;;;;;5059721;28;20103;-80
2023/07/29 12:14:49;;;;;;;3.83;1.80;;;27.50;99.90;;;;;;5049207;28;20306;-78
2023/07/29 12:17:22;;;;;;;7.15;1.98;;;27.70;99.90;;;;;;5067689;28;20043;-83
2023/07/29 12:19:47;;;;;;;3.07;1.77;;;27.20;99.90;;;;;;5070519;28;20337;-84
2023/07/29 12:22:19;;;;;;;5.43;1.70;;;27.40;99.90;;;;;;5085625;28;20016;-81
2023/07/29 12:24:45;;;;;;;2.42;1.65;;;27.40;99.90;;;;;;5085993;28;20248;-81
2023/07/29 12:27:15;;;;;;;3.05;1.90;;;27.30;99.90;;;;;;5066404;28;20088;-80
2023/07/29 12:29:42;;;;;;;2.45;1.90;;;26.80;99.90;;;;;;5067835;28;20032;-82
2023/07/29 12:32:10;;;;;;;2.80;2.13;;;26.60;99.90;;;;;;5069831;28;20191;-84
2023/07/29 12:34:38;;;;;;;2.97;2.05;;;26.90;99.90;;;;;;5076399;28;20222;-83
2023/07/29 12:37:05;;;;;;;3.38;2.05;;;26.80;99.90;;;;;;5075433;28;20085;-83
2023/07/29 12:39:33;;;;;;;5.30;1.73;;;26.90;99.90;;;;;;5051642;28;20032;-82
2023/07/29 12:42:00;;;;;;;3.20;1.92;;;27.30;99.90;;;;;;5099639;28;20087;-81
2023/07/29 12:44:31;;;;;;;2.75;1.80;;;27.20;99.90;;;;;;5074882;28;20034;-82
2023/07/29 12:46:57;;;;;;;2.42;1.90;;;27.20;99.90;;;;;;5063662;28;20094;-80
2023/07/29 12:49:23;;;;;;;5.78;2.80;;;27.40;99.90;;;;;;5085657;28;20249;-80